Terminal Aerodrome Forecast
Issued by NWS Cleveland, OH

Home | Current Version | Previous Version | Text Only | Print | Product List | Glossary On
Versions: 1 2 3 4 5 6 7 8 9 10 11 12 13 14 15 16 17
000
FTUS41 KCLE 232353 AAA
TAFERI
TAF AMD
KERI 232353Z 2400/2424 25008KT P6SM SCT025 OVC040
      TEMPO 2400/2402 BKN025
     FM240400 25006KT P6SM BKN040
     FM241200 25010KT P6SM SCT100
     FM241600 27015G22KT P6SM SCT045 BKN060
     FM242200 27010KT P6SM BKN080=

USA.gov is the U.S. government's official web portal to all federal, state and local government web resources and services.